Time;durP1;ratioP1;P1;durP2;ratioP2;P2;SDS_P1;SDS_P2;PMS_P1;PMS_P2;Temp;Humidity;BMP_temperature;BMP_pressure;BME280_temperature;BME280_humidity;BME280_pressure;Samples;Min_cycle;Max_cycle;Signal;HPM_P1;HPM_P2
2023/01/09 00:00:54;;;;;;;8.27;1.63;;;25.70;54.00;;;;;;5050373;28;20180;-71
2023/01/09 00:03:22;;;;;;;4.50;1.67;;;25.80;53.80;;;;;;5050449;28;20179;-69
2023/01/09 00:05:49;;;;;;;6.73;1.60;;;25.90;53.00;;;;;;5052271;28;20172;-69
2023/01/09 00:08:18;;;;;;;5.77;1.73;;;25.50;53.10;;;;;;5049162;28;20176;-71
2023/01/09 00:10:45;;;;;;;10.47;1.73;;;25.70;52.70;;;;;;5047372;28;20211;-69
2023/01/09 00:13:13;;;;;;;4.20;1.73;;;25.80;52.90;;;;;;5045271;28;20184;-71
2023/01/09 00:15:41;;;;;;;6.13;1.57;;;25.90;51.80;;;;;;5056970;28;20172;-69
2023/01/09 00:18:08;;;;;;;6.30;1.70;;;26.00;51.40;;;;;;5050047;28;20211;-71
2023/01/09 00:20:36;;;;;;;6.33;1.57;;;26.00;51.50;;;;;;5051144;28;20207;-68
2023/01/09 00:23:04;;;;;;;6.33;1.90;;;26.30;50.70;;;;;;5053037;28;20175;-70
2023/01/09 00:25:31;;;;;;;5.77;1.60;;;26.40;50.00;;;;;;5051076;28;20984;-70
2023/01/09 00:27:58;;;;;;;5.80;1.57;;;26.20;50.40;;;;;;5051370;28;20187;-69
2023/01/09 00:30:26;;;;;;;4.90;1.60;;;26.30;50.90;;;;;;5052768;28;20233;-69
2023/01/09 00:32:54;;;;;;;5.03;1.40;;;26.30;50.00;;;;;;5052340;28;20183;-70
2023/01/09 00:35:24;;;;;;;5.90;1.80;;;26.00;50.50;;;;;;5047599;28;20211;-69
2023/01/09 00:37:53;;;;;;;4.47;1.80;;;26.30;51.40;;;;;;5049559;28;20264;-69
2023/01/09 00:40:20;;;;;;;9.67;2.10;;;26.40;52.30;;;;;;5050680;28;20523;-70
2023/01/09 00:42:53;;;;;;;7.10;1.80;;;26.80;50.80;;;;;;5055428;28;20191;-70
2023/01/09 00:45:27;;;;;;;11.03;2.07;;;26.30;52.50;;;;;;5053271;28;20509;-72
2023/01/09 00:48:02;;;;;;;7.50;2.33;;;25.80;53.30;;;;;;5051791;28;20194;-70
2023/01/09 00:50:32;;;;;;;5.47;2.00;;;25.80;52.70;;;;;;5053738;28;20262;-71
2023/01/09 00:53:05;;;;;;;6.03;1.93;;;26.00;52.30;;;;;;5053028;28;20258;-69
2023/01/09 00:55:34;;;;;;;5.90;1.80;;;26.40;52.80;;;;;;5061650;28;20179;-70
2023/01/09 00:58:02;;;;;;;5.53;1.90;;;26.50;52.80;;;;;;5058435;28;20187;-70
2023/01/09 01:00:29;;;;;;;6.17;1.50;;;26.80;52.20;;;;;;5052877;28;20187;-71
2023/01/09 01:02:57;;;;;;;5.70;1.70;;;26.90;51.60;;;;;;5053162;28;20309;-72
2023/01/09 01:08:15;;;;;;;6.23;1.90;;;27.00;50.90;;;;;;5053835;28;20641;-74
2023/01/09 01:10:43;;;;;;;4.33;1.43;;;26.80;51.70;;;;;;5053674;28;20212;-70
2023/01/09 01:13:11;;;;;;;4.97;1.47;;;26.90;51.30;;;;;;5053240;28;20906;-70
2023/01/09 01:15:43;;;;;;;5.20;1.60;;;26.80;51.60;;;;;;5056229;28;20187;-69
2023/01/09 01:18:12;;;;;;;12.57;4.93;;;27.20;51.20;;;;;;5050363;28;20259;-69
2023/01/09 01:20:44;;;;;;;8.40;1.93;;;27.20;50.30;;;;;;5053286;28;20515;-70
2023/01/09 01:23:11;;;;;;;6.83;2.00;;;27.30;50.80;;;;;;5047884;28;20194;-69
2023/01/09 01:25:41;;;;;;;9.63;2.20;;;27.80;50.50;;;;;;5051943;28;20176;-70
2023/01/09 01:28:09;;;;;;;6.10;1.70;;;27.80;49.80;;;;;;5053399;28;20188;-71
2023/01/09 01:30:41;;;;;;;5.47;1.67;;;27.70;50.30;;;;;;5054406;28;20207;-69
2023/01/09 01:33:10;;;;;;;8.73;2.00;;;27.40;50.30;;;;;;5054236;28;20552;-69
2023/01/09 01:35:38;;;;;;;9.43;1.80;;;27.60;50.60;;;;;;5054079;28;20214;-69
2023/01/09 01:38:05;;;;;;;7.77;1.80;;;27.90;49.90;;;;;;5054444;28;20204;-70
2023/01/09 01:40:33;;;;;;;4.93;1.70;;;27.70;49.20;;;;;;5053619;28;20535;-69
2023/01/09 01:43:00;;;;;;;6.03;2.10;;;27.70;49.20;;;;;;5052550;28;20184;-70
2023/01/09 01:45:31;;;;;;;6.40;1.90;;;27.60;49.80;;;;;;5054426;28;20188;-71
2023/01/09 01:48:09;;;;;;;8.73;2.00;;;27.40;50.50;;;;;;5054125;28;20176;-71
2023/01/09 01:51:10;;;;;;;4.53;1.47;;;27.60;49.70;;;;;;5047832;28;20231;-71
2023/01/09 01:53:45;;;;;;;8.43;1.87;;;27.40;49.30;;;;;;5041376;28;20188;-69
2023/01/09 01:56:46;;;;;;;6.30;1.90;;;27.30;50.40;;;;;;5054028;28;20187;-69
2023/01/09 01:59:25;;;;;;;7.43;2.10;;;27.60;50.00;;;;;;5047847;28;20191;-71
2023/01/09 02:01:57;;;;;;;7.83;1.53;;;28.00;49.10;;;;;;5053310;28;20183;-70
2023/01/09 02:04:25;;;;;;;7.33;1.80;;;27.90;49.80;;;;;;5054102;28;20180;-70
2023/01/09 02:06:55;;;;;;;6.37;1.60;;;27.80;48.50;;;;;;5053669;28;20261;-72
2023/01/09 02:09:25;;;;;;;7.30;2.30;;;27.70;49.30;;;;;;5052677;28;20195;-69
2023/01/09 02:11:56;;;;;;;7.73;1.80;;;27.90;50.30;;;;;;5053928;28;20666;-70
2023/01/09 02:14:28;;;;;;;5.20;1.73;;;28.20;48.90;;;;;;5052865;28;20682;-71
2023/01/09 02:17:28;;;;;;;5.83;1.70;;;28.00;48.60;;;;;;5053165;28;20651;-71
2023/01/09 02:20:08;;;;;;;5.90;1.63;;;28.00;49.10;;;;;;5051605;28;20184;-69
2023/01/09 02:23:01;;;;;;;7.40;1.83;;;27.80;49.50;;;;;;5053941;28;20187;-69
2023/01/09 02:26:15;;;;;;;3.27;1.37;;;27.90;49.60;;;;;;5049931;28;20648;-71
2023/01/09 02:28:52;;;;;;;5.90;1.83;;;27.90;50.30;;;;;;5016613;28;20672;-69
2023/01/09 02:31:27;;;;;;;7.97;1.60;;;28.40;49.10;;;;;;5056326;28;20211;-71
2023/01/09 02:34:00;;;;;;;3.53;1.57;;;28.10;48.80;;;;;;5055741;28;20172;-70
2023/01/09 02:36:53;;;;;;;7.53;1.70;;;28.20;49.70;;;;;;5057565;28;20183;-72
2023/01/09 02:39:31;;;;;;;6.83;1.57;;;28.00;49.50;;;;;;5052696;28;20246;-72
2023/01/09 02:42:02;;;;;;;4.97;1.40;;;28.10;49.10;;;;;;5053165;28;20190;-72
2023/01/09 02:44:34;;;;;;;2.17;1.30;;;28.30;50.20;;;;;;5053648;28;20172;-74
2023/01/09 02:47:15;;;;;;;8.23;3.70;;;28.30;49.20;;;;;;5053659;28;20332;-73
2023/01/09 02:49:46;;;;;;;6.63;3.17;;;28.50;49.10;;;;;;5049546;28;20574;-71
2023/01/09 02:53:03;;;;;;;5.93;2.03;;;28.60;49.90;;;;;;5056696;28;20215;-70
2023/01/09 02:55:46;;;;;;;6.27;1.53;;;28.90;49.10;;;;;;5037954;28;20239;-70
2023/01/09 02:58:39;;;;;;;5.20;1.60;;;28.70;48.50;;;;;;5052218;28;20233;-72
2023/01/09 03:01:24;;;;;;;7.80;2.30;;;28.30;49.70;;;;;;5054469;28;20184;-71
2023/01/09 03:04:10;;;;;;;6.03;1.50;;;28.60;49.40;;;;;;5056395;28;20187;-70
2023/01/09 03:07:06;;;;;;;5.03;1.33;;;28.50;49.60;;;;;;5057621;28;20187;-70
2023/01/09 03:09:37;;;;;;;2.63;1.30;;;28.50;49.80;;;;;;5051434;28;20176;-71
2023/01/09 03:12:17;;;;;;;4.33;1.60;;;28.80;48.80;;;;;;5056635;28;20393;-72
2023/01/09 03:14:51;;;;;;;5.57;1.60;;;28.40;49.70;;;;;;5061228;28;20191;-72
2023/01/09 03:17:27;;;;;;;4.83;1.43;;;28.60;50.00;;;;;;5062214;28;20210;-71
2023/01/09 03:19:58;;;;;;;5.30;2.00;;;28.80;49.30;;;;;;5054868;28;20171;-70
2023/01/09 03:22:25;;;;;;;3.43;1.40;;;28.70;48.80;;;;;;5052937;28;20189;-73
2023/01/09 03:24:53;;;;;;;5.77;1.70;;;28.60;49.10;;;;;;5055303;28;20172;-71
2023/01/09 03:27:20;;;;;;;5.97;1.80;;;28.80;49.60;;;;;;5054298;28;20188;-71
2023/01/09 03:29:47;;;;;;;3.33;1.10;;;29.00;48.80;;;;;;5056094;28;20232;-70
2023/01/09 03:32:15;;;;;;;4.03;1.47;;;28.90;49.00;;;;;;5052522;28;20218;-69
2023/01/09 03:34:42;;;;;;;7.07;2.55;;;29.50;48.30;;;;;;5048259;28;20168;-69
2023/01/09 03:37:10;;;;;;;3.95;1.58;;;29.40;48.30;;;;;;5051514;28;20202;-71
2023/01/09 03:39:37;;;;;;;5.82;1.35;;;29.60;46.90;;;;;;5052151;28;20251;-70
2023/01/09 03:42:05;;;;;;;5.27;1.50;;;29.50;46.90;;;;;;5052067;28;20271;-71
2023/01/09 03:44:32;;;;;;;5.68;1.95;;;29.70;45.70;;;;;;5051850;28;20196;-70
2023/01/09 03:46:59;;;;;;;3.47;1.27;;;29.50;46.80;;;;;;5052259;28;20180;-70
2023/01/09 03:49:27;;;;;;;8.13;1.60;;;29.90;46.00;;;;;;5050747;28;20227;-70
2023/01/09 03:51:54;;;;;;;3.20;1.58;;;29.60;46.60;;;;;;5052134;28;20273;-71
2023/01/09 03:54:21;;;;;;;3.38;1.08;;;29.80;46.00;;;;;;5050945;28;20210;-70
2023/01/09 03:56:49;;;;;;;4.53;1.60;;;30.00;44.90;;;;;;5052198;28;20202;-68
2023/01/09 03:59:16;;;;;;;2.83;1.30;;;30.60;43.40;;;;;;5051156;28;20183;-70
2023/01/09 04:01:43;;;;;;;4.97;1.23;;;30.90;41.90;;;;;;5050925;28;20613;-71
2023/01/09 04:04:11;;;;;;;4.25;1.52;;;31.10;41.50;;;;;;5052904;28;20180;-71
2023/01/09 04:06:38;;;;;;;5.03;1.38;;;30.80;41.90;;;;;;5051561;28;20520;-71
2023/01/09 04:09:05;;;;;;;4.22;1.40;;;31.00;41.90;;;;;;5051447;28;20203;-70
2023/01/09 04:11:33;;;;;;;7.00;1.50;;;30.90;42.90;;;;;;5050523;28;20305;-69
2023/01/09 04:14:00;;;;;;;5.38;1.48;;;31.20;42.70;;;;;;5049215;28;20250;-70
2023/01/09 04:16:27;;;;;;;4.60;1.40;;;31.10;41.70;;;;;;5050775;28;20180;-69
2023/01/09 04:18:55;;;;;;;3.50;1.40;;;31.30;41.60;;;;;;5054123;28;20179;-69
2023/01/09 04:21:22;;;;;;;6.38;1.58;;;31.20;41.80;;;;;;5052016;28;20245;-72
2023/01/09 04:23:49;;;;;;;4.80;1.20;;;30.60;43.70;;;;;;5052902;28;20266;-71
2023/01/09 04:26:17;;;;;;;6.22;1.70;;;30.60;43.20;;;;;;5054678;28;21522;-71
2023/01/09 04:28:44;;;;;;;5.25;1.27;;;30.60;44.30;;;;;;5055952;28;20536;-69
2023/01/09 04:31:11;;;;;;;3.63;1.33;;;30.80;43.40;;;;;;5054776;28;20238;-71
2023/01/09 04:33:39;;;;;;;4.20;1.30;;;29.50;45.80;;;;;;5053766;28;20204;-72
2023/01/09 04:36:06;;;;;;;4.65;1.38;;;29.60;45.70;;;;;;5053551;28;20176;-71
2023/01/09 04:38:34;;;;;;;4.30;1.20;;;29.70;46.20;;;;;;5055636;28;20176;-71
2023/01/09 04:41:01;;;;;;;6.25;1.40;;;29.80;46.60;;;;;;5054894;28;20191;-70
2023/01/09 04:43:28;;;;;;;2.20;1.15;;;29.60;46.50;;;;;;5055285;28;20638;-71
2023/01/09 04:45:56;;;;;;;3.07;1.33;;;29.80;45.90;;;;;;5055292;28;20230;-72
2023/01/09 04:48:23;;;;;;;3.72;1.40;;;30.30;45.30;;;;;;5054622;28;20176;-70
2023/01/09 04:50:50;;;;;;;3.38;1.25;;;29.80;46.30;;;;;;5053417;28;20227;-70
2023/01/09 04:53:18;;;;;;;7.07;4.37;;;31.20;44.00;;;;;;5054485;28;20234;-70
2023/01/09 04:55:45;;;;;;;4.72;2.10;;;31.30;42.50;;;;;;5053095;28;20639;-71
2023/01/09 04:58:13;;;;;;;2.80;1.20;;;30.50;43.50;;;;;;5051393;28;20207;-70
2023/01/09 05:00:40;;;;;;;5.25;1.05;;;30.60;44.30;;;;;;5053423;28;20184;-70
2023/01/09 05:03:07;;;;;;;4.05;1.40;;;31.50;41.80;;;;;;5054619;28;20650;-70
2023/01/09 05:05:35;;;;;;;4.00;1.10;;;31.90;40.60;;;;;;5054372;28;20206;-72
2023/01/09 05:08:02;;;;;;;3.38;1.20;;;32.60;39.80;;;;;;5054026;28;20188;-70
2023/01/09 05:10:29;;;;;;;4.72;1.35;;;31.70;41.70;;;;;;5055046;28;20541;-70
2023/01/09 05:13:00;;;;;;;2.72;1.17;;;32.30;40.10;;;;;;5056568;28;20188;-69
2023/01/09 05:15:29;;;;;;;9.00;1.50;;;32.40;39.50;;;;;;5055016;28;20583;-71
2023/01/09 05:17:57;;;;;;;4.18;1.30;;;32.40;40.70;;;;;;5052930;28;20720;-70
2023/01/09 05:20:24;;;;;;;4.57;1.20;;;31.70;41.10;;;;;;5054788;28;20207;-70
2023/01/09 05:22:51;;;;;;;4.55;1.27;;;30.80;43.00;;;;;;5054837;28;20656;-71
2023/01/09 05:25:19;;;;;;;4.70;1.30;;;30.90;43.00;;;;;;5052026;28;20180;-69
2023/01/09 05:27:46;;;;;;;3.42;1.35;;;31.40;42.40;;;;;;5054609;28;20180;-71
2023/01/09 05:30:15;;;;;;;3.05;1.10;;;31.80;41.80;;;;;;5054824;28;20180;-73
2023/01/09 05:32:45;;;;;;;5.85;1.25;;;31.10;43.30;;;;;;5054615;28;20195;-71
2023/01/09 05:35:13;;;;;;;4.63;1.65;;;30.80;43.90;;;;;;5049335;28;20191;-69
2023/01/09 05:37:40;;;;;;;6.22;1.30;;;30.30;45.10;;;;;;5054713;28;20176;-69
2023/01/09 05:40:08;;;;;;;3.63;1.17;;;29.90;45.90;;;;;;5054487;28;20184;-71
2023/01/09 05:42:35;;;;;;;4.45;1.02;;;29.80;46.10;;;;;;5054745;28;20188;-70
2023/01/09 05:45:03;;;;;;;3.95;1.20;;;30.70;45.10;;;;;;5054745;28;20214;-70
2023/01/09 05:47:30;;;;;;;4.45;1.27;;;30.60;44.70;;;;;;5054197;28;20222;-68
2023/01/09 05:49:58;;;;;;;2.65;0.90;;;31.00;44.70;;;;;;5054248;28;20232;-71
2023/01/09 05:52:25;;;;;;;3.08;1.17;;;31.10;42.90;;;;;;5053870;28;20235;-71
2023/01/09 05:54:52;;;;;;;5.50;1.30;;;31.30;42.20;;;;;;5054594;28;20525;-70
2023/01/09 05:57:20;;;;;;;8.77;1.70;;;30.80;44.80;;;;;;5054195;28;20182;-70
2023/01/09 05:59:47;;;;;;;6.82;1.52;;;31.60;43.70;;;;;;5053335;28;20179;-70
2023/01/09 06:02:14;;;;;;;2.95;1.10;;;31.40;42.80;;;;;;5048214;28;20188;-72
2023/01/09 06:04:42;;;;;;;4.82;1.45;;;31.70;41.70;;;;;;5051760;28;20172;-70
2023/01/09 06:07:10;;;;;;;2.95;1.10;;;32.00;42.60;;;;;;5052560;28;20690;-69
2023/01/09 06:09:37;;;;;;;2.83;1.10;;;32.50;41.50;;;;;;5053656;28;20199;-71
2023/01/09 06:12:04;;;;;;;3.17;1.02;;;30.80;45.00;;;;;;5050079;28;20219;-69
2023/01/09 06:14:32;;;;;;;6.20;1.40;;;30.30;46.50;;;;;;5054399;28;20172;-72
2023/01/09 06:16:59;;;;;;;6.03;1.10;;;30.30;46.10;;;;;;5053258;28;20237;-70
2023/01/09 06:19:27;;;;;;;4.55;1.20;;;30.30;46.70;;;;;;5052355;28;20180;-71
2023/01/09 06:21:54;;;;;;;5.85;1.25;;;31.10;44.30;;;;;;5056412;28;20225;-72
2023/01/09 06:24:22;;;;;;;3.58;1.27;;;31.60;42.00;;;;;;5066028;28;20187;-71
2023/01/09 06:26:49;;;;;;;4.15;1.08;;;30.60;45.40;;;;;;5054355;28;20270;-72
2023/01/09 06:29:16;;;;;;;3.78;1.42;;;30.10;45.30;;;;;;5052924;28;20372;-71
2023/01/09 06:31:44;;;;;;;3.75;1.35;;;30.30;45.50;;;;;;5055665;28;20225;-70
2023/01/09 06:34:11;;;;;;;6.85;1.70;;;31.50;43.60;;;;;;5060041;28;20215;-71
2023/01/09 06:36:39;;;;;;;4.05;1.20;;;31.40;43.10;;;;;;5065205;28;20172;-71
2023/01/09 06:39:06;;;;;;;5.57;1.40;;;31.40;42.60;;;;;;5061009;28;20183;-70
2023/01/09 06:41:34;;;;;;;2.95;1.10;;;30.80;44.30;;;;;;5073339;28;20634;-70
2023/01/09 06:44:01;;;;;;;4.05;1.20;;;32.10;39.90;;;;;;5066777;28;20246;-71
2023/01/09 06:46:28;;;;;;;3.25;1.10;;;31.60;41.70;;;;;;5056044;28;20906;-70
2023/01/09 06:48:56;;;;;;;2.95;1.05;;;31.50;42.20;;;;;;5052355;28;20714;-70
2023/01/09 06:51:23;;;;;;;6.13;1.10;;;31.80;40.60;;;;;;5050694;28;20251;-71
2023/01/09 06:53:50;;;;;;;4.50;1.05;;;30.70;42.80;;;;;;5070123;28;20183;-70
2023/01/09 06:56:19;;;;;;;3.47;1.20;;;31.40;42.20;;;;;;5056486;28;20650;-71
2023/01/09 06:58:46;;;;;;;4.07;1.00;;;30.40;44.30;;;;;;5067548;28;20172;-71
2023/01/09 07:01:13;;;;;;;3.78;1.10;;;31.50;42.50;;;;;;5063858;28;20180;-70
2023/01/09 07:03:41;;;;;;;3.47;1.20;;;31.80;42.50;;;;;;5063823;28;20194;-71
2023/01/09 07:06:09;;;;;;;7.50;1.63;;;31.80;40.00;;;;;;5068402;28;20175;-69
2023/01/09 07:08:36;;;;;;;7.88;1.25;;;31.60;40.80;;;;;;5063245;28;20175;-70
2023/01/09 07:11:04;;;;;;;3.00;1.10;;;31.70;40.40;;;;;;5054906;28;20207;-70
2023/01/09 07:13:31;;;;;;;3.88;1.40;;;32.40;39.00;;;;;;5059956;28;20255;-69
2023/01/09 07:15:58;;;;;;;2.80;1.10;;;32.60;39.90;;;;;;5053615;28;20271;-69
2023/01/09 07:18:26;;;;;;;4.15;1.10;;;32.10;39.40;;;;;;5056187;28;20176;-70
2023/01/09 07:20:53;;;;;;;3.50;1.20;;;32.10;40.30;;;;;;5064028;28;20175;-69
2023/01/09 07:23:20;;;;;;;4.22;1.48;;;30.70;43.10;;;;;;5060938;28;20211;-70
2023/01/09 07:25:51;;;;;;;4.18;1.23;;;31.10;42.70;;;;;;5065999;28;20185;-71
2023/01/09 07:28:18;;;;;;;3.25;1.17;;;30.50;42.70;;;;;;5072739;28;20175;-69
2023/01/09 07:30:45;;;;;;;4.55;1.15;;;29.30;46.00;;;;;;5072557;28;20692;-69
2023/01/09 07:33:13;;;;;;;4.93;1.30;;;28.80;48.10;;;;;;5067620;28;20187;-70
2023/01/09 07:35:40;;;;;;;3.90;1.30;;;28.20;49.80;;;;;;5046447;28;20177;-70
2023/01/09 07:38:07;;;;;;;1.90;1.20;;;28.20;49.50;;;;;;5071277;28;20171;-71
2023/01/09 07:40:35;;;;;;;6.00;1.20;;;27.80;50.40;;;;;;5065545;28;20547;-70
2023/01/09 07:43:02;;;;;;;3.70;1.00;;;27.30;51.80;;;;;;5072562;28;20285;-70
2023/01/09 07:45:29;;;;;;;3.83;1.50;;;26.90;52.50;;;;;;5068164;28;20195;-69
2023/01/09 07:47:57;;;;;;;5.37;1.13;;;26.50;54.50;;;;;;5054003;28;20188;-69
2023/01/09 07:50:25;;;;;;;3.73;1.23;;;26.40;55.30;;;;;;5048697;28;20322;-71
2023/01/09 07:52:52;;;;;;;4.23;1.10;;;26.60;54.60;;;;;;5055370;28;20263;-70
2023/01/09 07:55:19;;;;;;;4.30;1.33;;;26.40;55.70;;;;;;5046467;28;20190;-69
2023/01/09 07:57:50;;;;;;;5.80;1.20;;;26.30;55.40;;;;;;5052842;28;20180;-69
2023/01/09 08:00:19;;;;;;;2.73;1.30;;;26.50;54.80;;;;;;5053388;28;20190;-69
2023/01/09 08:02:52;;;;;;;5.73;1.33;;;26.50;54.80;;;;;;5053360;28;20219;-70
2023/01/09 08:05:20;;;;;;;5.90;1.43;;;26.00;56.90;;;;;;5050423;28;20184;-69
2023/01/09 08:07:49;;;;;;;3.87;1.30;;;25.70;57.90;;;;;;5054428;28;20186;-70
2023/01/09 08:10:20;;;;;;;3.90;1.40;;;25.40;58.70;;;;;;5057716;28;20179;-69
2023/01/09 08:12:48;;;;;;;4.37;1.60;;;25.50;58.60;;;;;;5054238;28;20223;-69
2023/01/09 08:15:16;;;;;;;5.33;1.70;;;25.70;58.30;;;;;;5059414;28;20175;-69
2023/01/09 08:17:45;;;;;;;6.33;2.10;;;25.90;58.40;;;;;;5052047;28;20172;-69
2023/01/09 08:20:15;;;;;;;2.73;1.50;;;25.80;58.00;;;;;;5050390;28;20634;-69
2023/01/09 08:22:48;;;;;;;6.47;1.10;;;25.50;59.60;;;;;;5048456;28;20180;-70
2023/01/09 08:25:16;;;;;;;3.53;1.10;;;25.00;61.30;;;;;;5050547;28;20607;-70
2023/01/09 08:27:44;;;;;;;4.77;1.00;;;24.80;61.70;;;;;;5048611;28;20178;-69
2023/01/09 08:30:12;;;;;;;4.17;1.30;;;24.90;61.50;;;;;;5049839;28;20786;-69
2023/01/09 08:32:40;;;;;;;4.37;1.50;;;25.00;60.50;;;;;;5050276;28;20246;-69
2023/01/09 08:35:08;;;;;;;3.50;1.30;;;25.10;59.80;;;;;;5050847;28;20850;-69
2023/01/09 08:37:36;;;;;;;5.40;1.17;;;24.90;60.70;;;;;;5049427;28;20180;-68
2023/01/09 08:40:04;;;;;;;2.53;1.00;;;24.80;61.40;;;;;;5051160;28;20209;-69
2023/01/09 08:48:01;;;;;;;7.53;1.57;;;24.50;63.40;;;;;;5053238;28;20677;-69
2023/01/09 08:50:29;;;;;;;5.33;1.27;;;24.40;63.70;;;;;;5055170;28;20266;-68
2023/01/09 08:52:56;;;;;;;2.47;1.03;;;24.40;62.90;;;;;;5054634;28;20747;-68
2023/01/09 08:55:23;;;;;;;4.00;1.23;;;24.40;62.30;;;;;;5051373;28;20175;-69
2023/01/09 08:57:52;;;;;;;5.10;1.20;;;24.30;63.60;;;;;;5050659;28;20196;-70
2023/01/09 09:00:22;;;;;;;5.27;1.57;;;23.90;64.90;;;;;;5049084;28;20198;-71
2023/01/09 09:02:57;;;;;;;5.93;1.57;;;23.70;65.20;;;;;;5050690;28;20191;-71
2023/01/09 09:05:27;;;;;;;6.57;1.33;;;23.70;65.50;;;;;;5051885;28;20192;-70
2023/01/09 09:07:55;;;;;;;83.17;11.00;;;23.70;65.70;;;;;;5049820;28;20211;-69
2023/01/09 09:10:25;;;;;;;10.33;2.00;;;23.70;66.10;;;;;;5055884;28;20240;-70
2023/01/09 09:12:54;;;;;;;6.33;1.50;;;23.60;65.90;;;;;;5055435;28;20610;-70
2023/01/09 09:15:23;;;;;;;3.00;1.20;;;23.50;65.30;;;;;;5060915;28;20194;-69
2023/01/09 09:17:54;;;;;;;3.97;1.30;;;23.50;65.40;;;;;;5053228;28;20187;-73
2023/01/09 09:20:24;;;;;;;5.17;1.53;;;23.50;65.20;;;;;;5054843;28;20263;-72
2023/01/09 09:22:51;;;;;;;5.00;1.40;;;23.50;65.80;;;;;;5056910;28;20188;-70
2023/01/09 09:25:19;;;;;;;3.37;1.30;;;23.30;65.40;;;;;;5053633;28;20188;-70
2023/01/09 09:27:47;;;;;;;1.50;1.30;;;23.30;65.50;;;;;;5052268;28;20261;-72
2023/01/09 09:30:16;;;;;;;4.00;1.40;;;23.30;65.60;;;;;;5055037;28;20570;-70
2023/01/09 09:32:44;;;;;;;3.20;1.20;;;23.30;65.50;;;;;;5053842;28;20678;-70
2023/01/09 09:35:12;;;;;;;4.03;1.33;;;23.30;65.40;;;;;;5062471;28;20178;-70
2023/01/09 09:37:39;;;;;;;2.17;1.17;;;23.20;65.80;;;;;;5050401;28;20183;-72
2023/01/09 09:40:11;;;;;;;1.23;1.07;;;23.10;66.30;;;;;;5061124;28;20240;-70
2023/01/09 09:45:36;;;;;;;2.47;1.30;;;23.00;67.00;;;;;;5050272;28;20280;-69
2023/01/09 09:48:32;;;;;;;5.37;1.50;;;22.90;67.40;;;;;;5060113;28;20191;-70
2023/01/09 09:51:11;;;;;;;2.80;1.00;;;22.90;67.70;;;;;;5055703;28;20223;-71
2023/01/09 09:54:08;;;;;;;1.97;1.20;;;22.90;67.40;;;;;;5053690;28;20590;-70
2023/01/09 09:56:46;;;;;;;3.73;1.37;;;22.80;67.90;;;;;;5054848;28;20176;-69
2023/01/09 09:59:20;;;;;;;4.90;1.40;;;22.80;68.10;;;;;;5049609;28;20200;-69
2023/01/09 10:01:59;;;;;;;5.33;1.30;;;22.70;68.70;;;;;;5053340;28;20181;-70
2023/01/09 10:04:31;;;;;;;4.13;1.40;;;22.70;68.90;;;;;;5057523;28;20183;-74
2023/01/09 10:07:08;;;;;;;3.03;1.30;;;22.70;69.00;;;;;;5059589;28;20183;-69
2023/01/09 10:09:59;;;;;;;3.03;1.23;;;22.60;69.40;;;;;;5055964;28;20222;-70
2023/01/09 10:12:31;;;;;;;3.53;1.33;;;22.50;69.40;;;;;;5058089;28;20219;-74
2023/01/09 10:15:01;;;;;;;3.47;1.20;;;22.50;69.30;;;;;;5051703;28;20278;-72
2023/01/09 10:17:58;;;;;;;3.27;1.07;;;22.40;69.50;;;;;;5056443;28;20183;-69
2023/01/09 10:20:40;;;;;;;3.40;1.33;;;22.40;69.90;;;;;;5053741;28;20210;-70
2023/01/09 10:23:30;;;;;;;4.00;1.10;;;22.30;69.90;;;;;;5065859;28;20213;-72
2023/01/09 10:26:04;;;;;;;3.33;1.30;;;22.40;70.00;;;;;;5053355;28;20188;-70
2023/01/09 10:29:07;;;;;;;4.80;1.20;;;22.30;70.10;;;;;;5053300;28;20206;-72
2023/01/09 10:32:02;;;;;;;3.57;1.37;;;22.30;70.30;;;;;;5050825;28;20214;-70
2023/01/09 10:34:45;;;;;;;7.13;2.00;;;22.30;70.70;;;;;;5053121;28;20184;-69
2023/01/09 10:37:33;;;;;;;4.27;1.37;;;22.30;70.60;;;;;;5052894;28;20659;-72
2023/01/09 10:40:07;;;;;;;4.83;1.50;;;22.30;70.80;;;;;;5048230;28;20274;-74
2023/01/09 10:43:21;;;;;;;2.53;1.33;;;22.20;70.60;;;;;;5053313;28;20184;-71
2023/01/09 10:45:53;;;;;;;3.63;1.43;;;22.20;71.00;;;;;;5020776;28;21469;-70
2023/01/09 10:48:29;;;;;;;3.50;1.07;;;22.20;71.30;;;;;;5051784;28;20179;-72
2023/01/09 10:50:58;;;;;;;3.23;1.20;;;22.00;71.40;;;;;;5052480;28;20223;-73
2023/01/09 10:53:42;;;;;;;7.23;1.37;;;22.00;72.00;;;;;;5050307;28;20180;-68
2023/01/09 10:56:23;;;;;;;7.43;1.50;;;21.90;72.60;;;;;;5049840;28;20215;-72
2023/01/09 10:58:53;;;;;;;2.23;1.20;;;21.80;73.00;;;;;;5049797;28;20172;-69
2023/01/09 11:01:32;;;;;;;3.93;1.47;;;21.80;73.30;;;;;;5052788;28;20180;-69
2023/01/09 11:04:00;;;;;;;3.73;1.70;;;21.80;73.30;;;;;;5052059;28;20278;-69
2023/01/09 11:06:43;;;;;;;6.50;1.90;;;21.80;73.30;;;;;;5051840;28;20182;-68
2023/01/09 11:09:14;;;;;;;4.30;1.43;;;21.80;73.40;;;;;;5052782;28;20191;-69
2023/01/09 11:11:43;;;;;;;6.57;1.80;;;21.80;73.30;;;;;;5052149;28;20853;-70
2023/01/09 11:14:31;;;;;;;2.73;1.60;;;21.80;73.30;;;;;;5049544;28;20604;-70
2023/01/09 11:17:02;;;;;;;2.90;1.40;;;21.70;73.90;;;;;;5052538;28;20179;-70
2023/01/09 11:19:31;;;;;;;2.63;1.30;;;21.70;73.90;;;;;;5052006;28;20188;-69
2023/01/09 11:22:19;;;;;;;6.13;1.57;;;21.70;74.00;;;;;;5051666;28;20179;-71
2023/01/09 11:24:58;;;;;;;4.90;1.50;;;21.60;74.00;;;;;;5052391;28;20187;-69
2023/01/09 11:27:26;;;;;;;4.23;1.40;;;21.60;74.70;;;;;;5049321;28;20175;-69
2023/01/09 11:30:16;;;;;;;4.33;1.40;;;21.60;74.70;;;;;;5052778;28;20172;-68
2023/01/09 11:32:46;;;;;;;4.20;1.40;;;21.60;74.70;;;;;;5047439;28;20227;-69
2023/01/09 11:35:47;;;;;;;5.10;1.53;;;21.60;74.60;;;;;;5051515;28;20191;-71
2023/01/09 11:38:17;;;;;;;2.83;1.47;;;21.60;74.60;;;;;;5051753;28;20258;-74
2023/01/09 11:40:53;;;;;;;3.17;1.23;;;21.50;75.00;;;;;;5052234;28;20183;-73
2023/01/09 11:43:29;;;;;;;2.50;1.30;;;21.50;75.10;;;;;;5052826;28;20184;-70
2023/01/09 11:45:59;;;;;;;4.67;1.20;;;21.50;74.90;;;;;;5052017;28;20274;-72
2023/01/09 11:48:34;;;;;;;3.60;1.40;;;21.40;75.40;;;;;;5052144;28;20184;-71
2023/01/09 11:51:05;;;;;;;2.87;1.27;;;21.40;75.50;;;;;;5051974;28;20697;-70
2023/01/09 11:54:07;;;;;;;7.30;1.40;;;21.40;75.40;;;;;;5047663;28;20210;-70
2023/01/09 11:56:40;;;;;;;3.70;1.60;;;21.40;75.60;;;;;;5049944;28;20208;-73
2023/01/09 11:59:13;;;;;;;4.90;1.60;;;21.30;75.80;;;;;;5046436;28;20245;-72
2023/01/09 12:01:43;;;;;;;2.57;1.30;;;21.30;75.50;;;;;;5052309;28;20233;-71
2023/01/09 12:04:27;;;;;;;4.70;1.70;;;21.30;75.50;;;;;;5052374;28;20520;-72
2023/01/09 12:06:57;;;;;;;5.43;1.70;;;21.30;75.40;;;;;;5049001;28;20182;-74
2023/01/09 12:09:55;;;;;;;5.00;1.67;;;21.30;75.80;;;;;;5050585;28;20872;-72
2023/01/09 12:12:41;;;;;;;4.73;1.60;;;21.30;75.50;;;;;;5047745;28;20300;-71
2023/01/09 12:15:23;;;;;;;4.47;1.67;;;21.30;75.50;;;;;;5052003;28;20663;-69
2023/01/09 12:18:22;;;;;;;3.20;1.50;;;21.30;75.70;;;;;;5052648;28;20191;-72
2023/01/09 12:20:52;;;;;;;4.03;1.40;;;21.30;75.70;;;;;;5051749;28;20198;-70
2023/01/09 12:23:31;;;;;;;5.73;1.33;;;21.30;75.90;;;;;;5051610;28;20180;-69
2023/01/09 12:26:16;;;;;;;4.50;1.60;;;21.30;76.00;;;;;;5051336;28;20657;-70
2023/01/09 12:28:52;;;;;;;4.70;1.77;;;21.30;75.80;;;;;;5052837;28;20197;-70
2023/01/09 12:31:44;;;;;;;5.93;1.57;;;21.30;75.80;;;;;;5060267;28;20206;-72
2023/01/09 12:34:38;;;;;;;2.70;1.47;;;21.20;75.80;;;;;;5049801;28;20587;-72
2023/01/09 12:37:16;;;;;;;6.40;1.80;;;21.10;75.80;;;;;;5046992;28;20172;-68
2023/01/09 12:39:53;;;;;;;4.00;1.70;;;21.10;75.80;;;;;;5055448;28;20602;-68
2023/01/09 12:42:29;;;;;;;4.10;1.80;;;21.10;76.10;;;;;;5054105;28;20176;-69
2023/01/09 12:45:33;;;;;;;3.30;1.37;;;21.10;76.00;;;;;;5051928;28;20187;-69
2023/01/09 12:48:25;;;;;;;4.30;1.90;;;21.10;76.00;;;;;;5045870;28;20198;-68
2023/01/09 12:51:30;;;;;;;6.97;1.90;;;21.10;76.10;;;;;;5051183;28;20232;-69
2023/01/09 12:54:24;;;;;;;4.03;1.67;;;21.10;75.90;;;;;;5055209;28;20238;-68
2023/01/09 12:57:00;;;;;;;3.10;1.60;;;21.00;75.90;;;;;;5053922;28;20379;-68
2023/01/09 12:59:41;;;;;;;3.63;1.53;;;20.90;76.10;;;;;;5055046;28;20216;-68
2023/01/09 13:02:29;;;;;;;4.97;1.50;;;20.90;76.50;;;;;;5045364;28;20187;-70
2023/01/09 13:05:19;;;;;;;2.33;1.33;;;20.80;76.40;;;;;;5051092;28;20258;-69
2023/01/09 13:08:12;;;;;;;4.43;1.60;;;20.80;76.80;;;;;;5054588;28;20669;-68
2023/01/09 13:10:44;;;;;;;2.67;1.13;;;20.70;76.80;;;;;;5050174;28;20259;-68
2023/01/09 13:13:30;;;;;;;3.60;1.50;;;20.70;77.10;;;;;;5055084;28;20240;-69
2023/01/09 13:16:01;;;;;;;2.97;1.43;;;20.70;77.30;;;;;;5055012;28;20196;-69
2023/01/09 13:18:49;;;;;;;4.17;1.70;;;20.60;77.40;;;;;;5054452;28;20280;-70
2023/01/09 13:21:17;;;;;;;4.47;1.60;;;20.50;77.60;;;;;;5054734;28;20224;-68
2023/01/09 13:24:09;;;;;;;3.23;1.60;;;20.40;77.90;;;;;;5054782;28;20219;-69
2023/01/09 13:26:56;;;;;;;5.23;1.77;;;20.40;78.30;;;;;;5067332;28;20192;-68